createdAt,value
2018-09-06T00:00:49.666Z,15.50
2018-09-06T00:03:19.483Z,15.50
2018-09-06T00:05:49.395Z,15.40
2018-09-06T00:08:19.289Z,15.40
2018-09-06T00:10:50.670Z,15.40
2018-09-06T00:13:20.406Z,15.40
2018-09-06T00:15:50.137Z,15.30
2018-09-06T00:18:24.267Z,15.30
2018-09-06T00:20:54.123Z,15.30
2018-09-06T00:23:23.912Z,15.30
2018-09-06T00:25:53.814Z,15.30
2018-09-06T00:28:23.594Z,15.30
2018-09-06T00:30:53.313Z,15.20
2018-09-06T00:33:22.980Z,15.30
2018-09-06T00:35:57.699Z,15.30
2018-09-06T00:38:27.547Z,15.20
2018-09-06T00:40:57.464Z,15.30
2018-09-06T00:43:27.196Z,15.20
2018-09-06T00:45:58.350Z,15.20
2018-09-06T00:48:29.578Z,15.20
2018-09-06T00:50:59.715Z,15.20
2018-09-06T00:53:29.495Z,15.20
2018-09-06T00:55:59.267Z,15.20
2018-09-06T00:58:29.035Z,15.10
2018-09-06T01:01:00.846Z,15.10
2018-09-06T01:03:30.640Z,15.00
2018-09-06T01:06:00.499Z,15.00
2018-09-06T01:08:30.311Z,15.00
2018-09-06T01:11:00.432Z,15.00
2018-09-06T01:13:30.667Z,15.00
2018-09-06T01:16:00.956Z,15.00
2018-09-06T01:18:31.833Z,14.90
2018-09-06T01:21:01.621Z,14.90
2018-09-06T01:23:31.392Z,14.80
2018-09-06T01:26:01.279Z,14.80
2018-09-06T01:28:31.044Z,14.80
2018-09-06T01:31:00.796Z,14.70
2018-09-06T01:33:30.692Z,14.60
2018-09-06T01:36:05.586Z,14.60
2018-09-06T01:38:35.431Z,14.50
2018-09-06T01:41:05.140Z,14.50
2018-09-06T01:44:03.481Z,14.50
2018-09-06T01:46:33.323Z,14.50
2018-09-06T01:49:03.351Z,14.40
2018-09-06T01:51:33.434Z,14.40
2018-09-06T01:54:03.915Z,14.40
2018-09-06T01:56:33.806Z,14.40
2018-09-06T01:59:03.823Z,14.40
2018-09-06T02:01:33.278Z,14.40
2018-09-06T02:04:02.772Z,14.50
2018-09-06T02:06:32.119Z,14.40
2018-09-06T02:09:02.653Z,14.40
2018-09-06T02:11:32.070Z,14.30
2018-09-06T02:14:01.777Z,14.30
2018-09-06T02:16:31.511Z,14.30
2018-09-06T02:19:01.312Z,14.30
2018-09-06T02:21:31.134Z,14.30
2018-09-06T02:24:01.366Z,14.30
2018-09-06T02:26:31.258Z,14.30
2018-09-06T02:29:00.997Z,14.20
2018-09-06T02:31:30.672Z,14.20
2018-09-06T02:34:00.400Z,14.20
2018-09-06T02:36:30.108Z,14.10
2018-09-06T02:39:05.829Z,14.10
2018-09-06T02:41:35.498Z,14.10
2018-09-06T02:44:05.430Z,14.10
2018-09-06T02:46:35.159Z,14.10
2018-09-06T02:49:27.654Z,14.00
2018-09-06T02:51:57.360Z,14.00
2018-09-06T02:54:27.063Z,13.90
2018-09-06T02:56:56.735Z,13.90
2018-09-06T02:59:26.694Z,13.70
2018-09-06T03:02:02.512Z,13.70
2018-09-06T03:04:36.232Z,13.70
2018-09-06T03:07:06.590Z,13.80
2018-09-06T03:09:36.837Z,13.70
2018-09-06T03:12:08.601Z,13.70
2018-09-06T03:14:39.206Z,13.70
2018-09-06T03:17:09.765Z,13.70
2018-09-06T03:19:39.957Z,13.70
2018-09-06T03:22:10.267Z,13.70
2018-09-06T03:24:40.351Z,13.70
2018-09-06T03:27:10.869Z,13.70
2018-09-06T03:29:40.893Z,13.60
2018-09-06T03:32:11.678Z,13.60
2018-09-06T03:34:42.370Z,13.60
2018-09-06T03:37:12.769Z,13.50
2018-09-06T03:39:42.966Z,13.40
2018-09-06T03:42:13.257Z,13.40
2018-09-06T03:45:07.893Z,13.40
2018-09-06T03:47:37.897Z,13.50
2018-09-06T03:50:08.454Z,13.40
2018-09-06T03:52:38.937Z,13.40
2018-09-06T03:55:09.458Z,13.30
2018-09-06T03:57:40.321Z,13.40
2018-09-06T04:00:10.894Z,13.30
2018-09-06T04:02:41.071Z,13.40
2018-09-06T04:05:28.000Z,13.30
2018-09-06T04:07:58.928Z,13.30
2018-09-06T04:10:29.262Z,13.30
2018-09-06T04:12:59.525Z,13.20
2018-09-06T04:15:29.929Z,13.10
2018-09-06T04:18:00.256Z,13.10
2018-09-06T04:20:30.617Z,13.10
2018-09-06T04:23:00.626Z,13.10
2018-09-06T04:25:31.114Z,13.10
2018-09-06T04:28:01.145Z,13.10
2018-09-06T04:30:31.284Z,13.00
2018-09-06T04:33:01.603Z,13.20
2018-09-06T04:35:31.798Z,13.20
2018-09-06T04:38:02.026Z,13.10
2018-09-06T04:40:32.693Z,13.10
2018-09-06T04:43:03.166Z,13.20
2018-09-06T04:45:33.211Z,13.10
2018-09-06T04:48:03.242Z,13.20
2018-09-06T04:50:33.149Z,13.10
2018-09-06T04:53:03.329Z,13.10
2018-09-06T04:55:33.422Z,13.10
2018-09-06T04:58:03.734Z,13.10
2018-09-06T05:00:34.172Z,13.10
2018-09-06T05:03:05.401Z,13.10
2018-09-06T05:05:35.858Z,13.00
2018-09-06T05:08:06.151Z,13.10
2018-09-06T05:10:36.379Z,13.20
2018-09-06T05:13:06.562Z,13.10
2018-09-06T05:15:36.902Z,13.10
2018-09-06T05:18:07.830Z,13.10
2018-09-06T05:20:38.203Z,13.10
2018-09-06T05:23:08.538Z,13.00
2018-09-06T05:25:38.885Z,13.10
2018-09-06T05:28:08.977Z,13.10
2018-09-06T05:30:39.440Z,13.20
2018-09-06T05:33:09.103Z,13.30
2018-09-06T05:35:39.911Z,13.30
2018-09-06T05:38:09.982Z,13.40
2018-09-06T05:40:40.350Z,13.60
2018-09-06T05:43:10.568Z,13.60
2018-09-06T05:45:40.498Z,13.80
2018-09-06T05:48:10.482Z,13.90
2018-09-06T05:50:40.510Z,14.00
2018-09-06T05:53:10.598Z,14.10
2018-09-06T05:55:41.019Z,14.20
2018-09-06T05:58:11.479Z,14.20
2018-09-06T06:00:45.057Z,14.40
2018-09-06T06:03:19.620Z,14.50
2018-09-06T06:05:49.599Z,14.60
2018-09-06T06:08:36.475Z,14.80
2018-09-06T06:11:06.814Z,15.00
2018-09-06T06:13:37.066Z,15.20
2018-09-06T06:16:07.225Z,15.40
2018-09-06T06:18:37.642Z,15.50
2018-09-06T06:21:08.143Z,15.80
2018-09-06T06:23:38.631Z,15.90
2018-09-06T06:26:10.655Z,16.00
2018-09-06T06:28:41.612Z,16.30
2018-09-06T06:31:11.707Z,16.80
2018-09-06T06:33:41.855Z,18.00
2018-09-06T06:36:11.750Z,18.90
2018-09-06T06:38:41.522Z,19.50
2018-09-06T06:41:11.218Z,20.40
2018-09-06T06:43:40.875Z,21.30
2018-09-06T06:46:10.674Z,21.70
2018-09-06T06:48:40.470Z,22.00
2018-09-06T06:51:10.118Z,22.10
2018-09-06T06:53:39.895Z,22.30
2018-09-06T06:56:26.014Z,22.70
2018-09-06T06:58:55.804Z,23.40
2018-09-06T07:01:25.499Z,23.30
2018-09-06T07:03:55.132Z,22.90
2018-09-06T07:06:24.862Z,22.30
2018-09-06T07:08:56.674Z,22.40
2018-09-06T07:11:26.391Z,23.10
2018-09-06T07:13:56.119Z,23.80
2018-09-06T07:16:25.843Z,24.30
2018-09-06T07:18:55.514Z,24.50
2018-09-06T07:21:25.323Z,24.40
2018-09-06T07:23:55.015Z,24.50
2018-09-06T07:26:24.679Z,24.20
2018-09-06T07:28:54.438Z,24.80
2018-09-06T07:31:24.114Z,24.20
2018-09-06T07:33:53.910Z,24.70
2018-09-06T07:36:23.692Z,25.90
2018-09-06T07:38:53.521Z,26.40
2018-09-06T07:41:23.339Z,26.90
2018-09-06T07:43:53.058Z,27.30
2018-09-06T07:46:22.796Z,27.30
2018-09-06T07:48:53.681Z,27.80
2018-09-06T07:51:23.336Z,28.00
2018-09-06T07:53:53.002Z,28.00
2018-09-06T07:56:22.968Z,28.00
2018-09-06T07:58:53.118Z,27.80
2018-09-06T08:01:24.238Z,27.00
2018-09-06T08:03:53.932Z,26.60
2018-09-06T08:06:24.014Z,27.10
2018-09-06T08:08:53.550Z,27.70
2018-09-06T08:11:23.180Z,27.10
2018-09-06T08:13:52.851Z,26.50
2018-09-06T08:16:22.569Z,27.20
2018-09-06T08:18:52.273Z,28.20
2018-09-06T08:21:21.989Z,28.20
2018-09-06T08:23:51.703Z,26.80
2018-09-06T08:26:21.356Z,26.70
2018-09-06T08:28:51.210Z,27.00
2018-09-06T08:31:20.911Z,27.40
2018-09-06T08:33:50.814Z,27.30
2018-09-06T08:36:20.703Z,27.70
2018-09-06T08:38:50.484Z,28.20
2018-09-06T08:41:20.169Z,28.30
2018-09-06T08:43:49.821Z,27.70
2018-09-06T08:46:19.518Z,26.80
2018-09-06T08:48:49.177Z,26.50
2018-09-06T08:51:19.083Z,25.40
2018-09-06T08:53:48.766Z,25.80
2018-09-06T08:56:18.435Z,25.10
2018-09-06T08:58:48.054Z,24.50
2018-09-06T09:01:22.964Z,25.20
2018-09-06T09:03:52.691Z,25.40
2018-09-06T09:06:22.530Z,26.30
2018-09-06T09:08:52.247Z,27.10
2018-09-06T09:11:21.923Z,27.80
2018-09-06T09:13:51.563Z,28.00
2018-09-06T09:16:21.195Z,28.50
2018-09-06T09:18:50.890Z,29.70
2018-09-06T09:21:20.545Z,29.20
2018-09-06T09:23:50.242Z,28.80
2018-09-06T09:26:19.995Z,28.70
2018-09-06T09:28:49.616Z,28.80
2018-09-06T09:31:19.363Z,27.30
2018-09-06T09:33:49.063Z,27.00
2018-09-06T09:36:18.782Z,26.70
2018-09-06T09:38:48.442Z,26.70
2018-09-06T09:41:18.091Z,27.10
2018-09-06T09:43:47.758Z,26.80
2018-09-06T09:48:46.275Z,27.80
2018-09-06T09:51:16.091Z,27.60
2018-09-06T09:53:45.947Z,27.80
2018-09-06T09:56:15.673Z,27.00
2018-09-06T09:58:45.398Z,27.50
2018-09-06T10:01:15.470Z,28.40
2018-09-06T10:06:24.135Z,28.50
2018-09-06T10:08:58.872Z,29.30
2018-09-06T10:11:28.582Z,28.80
2018-09-06T10:13:58.260Z,27.90
2018-09-06T10:16:28.182Z,27.40
2018-09-06T10:18:57.970Z,28.20
2018-09-06T10:21:27.868Z,28.90
2018-09-06T10:23:57.715Z,29.20
2018-09-06T10:26:27.528Z,29.10
2018-09-06T10:28:58.146Z,29.70
2018-09-06T10:31:28.066Z,29.20
2018-09-06T10:33:57.649Z,29.10
2018-09-06T10:36:27.381Z,29.80
2018-09-06T10:38:57.343Z,30.70
2018-09-06T10:41:27.131Z,31.10
2018-09-06T10:43:57.078Z,30.50
2018-09-06T10:46:26.863Z,29.60
2018-09-06T10:48:56.636Z,29.10
2018-09-06T10:51:26.407Z,30.30
2018-09-06T10:56:38.015Z,30.60
2018-09-06T10:59:08.802Z,30.70
2018-09-06T11:01:38.180Z,29.10
2018-09-06T11:04:07.866Z,29.10
2018-09-06T11:06:37.217Z,29.80
2018-09-06T11:09:07.597Z,30.70
2018-09-06T11:11:38.649Z,30.70
2018-09-06T11:14:08.112Z,31.40
2018-09-06T11:16:37.521Z,31.30
2018-09-06T11:19:06.993Z,31.20
2018-09-06T11:21:37.892Z,30.40
2018-09-06T11:24:07.086Z,30.00
2018-09-06T11:26:36.482Z,29.80
2018-09-06T11:29:05.859Z,30.70
2018-09-06T11:31:35.453Z,31.20
2018-09-06T11:34:05.063Z,29.90
2018-09-06T11:36:34.446Z,29.90
2018-09-06T11:39:05.129Z,29.30
2018-09-06T11:41:34.553Z,28.80
2018-09-06T11:44:04.407Z,29.20
2018-09-06T11:46:39.374Z,29.50
2018-09-06T11:49:09.049Z,30.00
2018-09-06T11:51:38.446Z,29.70
2018-09-06T11:54:08.169Z,29.70
2018-09-06T11:56:38.414Z,29.90
2018-09-06T11:59:09.854Z,30.40
2018-09-06T12:01:39.825Z,30.70
2018-09-06T12:04:09.700Z,31.00
2018-09-06T12:06:39.471Z,30.20
2018-09-06T12:09:09.125Z,29.50
2018-09-06T12:11:38.855Z,29.70
2018-09-06T12:14:08.549Z,30.20
2018-09-06T12:16:38.286Z,29.90
2018-09-06T12:19:07.921Z,30.00
2018-09-06T12:21:37.710Z,30.00
2018-09-06T12:24:07.455Z,30.30
2018-09-06T12:26:37.322Z,30.50
2018-09-06T12:29:07.196Z,30.80
2018-09-06T12:31:36.946Z,31.90
2018-09-06T12:34:06.837Z,32.40
2018-09-06T12:36:36.478Z,33.30
2018-09-06T12:39:08.350Z,33.00
2018-09-06T12:41:38.443Z,33.30
2018-09-06T12:44:08.577Z,32.50
2018-09-06T12:46:38.206Z,32.60
2018-09-06T12:49:07.941Z,31.90
2018-09-06T12:51:37.746Z,30.40
2018-09-06T12:54:07.455Z,29.20
2018-09-06T12:56:37.157Z,28.30
2018-09-06T12:59:06.962Z,27.80
2018-09-06T13:01:36.690Z,28.00
2018-09-06T13:04:06.374Z,27.90
2018-09-06T13:06:36.119Z,27.90
2018-09-06T13:09:06.875Z,27.90
2018-09-06T13:11:37.079Z,27.60
2018-09-06T13:14:06.723Z,27.30
2018-09-06T13:16:36.435Z,26.80
2018-09-06T13:19:25.102Z,26.80
2018-09-06T13:21:54.797Z,26.80
2018-09-06T13:24:24.599Z,26.30
2018-09-06T13:26:54.466Z,25.70
2018-09-06T13:29:24.048Z,25.50
2018-09-06T13:31:55.116Z,25.40
2018-09-06T13:34:24.722Z,25.90
2018-09-06T13:36:54.642Z,26.40
2018-09-06T13:39:24.443Z,26.20
2018-09-06T13:41:54.527Z,25.80
2018-09-06T13:44:24.173Z,25.40
2018-09-06T13:46:54.059Z,25.20
2018-09-06T13:49:23.827Z,25.00
2018-09-06T13:51:53.436Z,24.90
2018-09-06T13:54:23.103Z,25.10
2018-09-06T13:57:00.038Z,25.10
2018-09-06T13:59:29.729Z,25.00
2018-09-06T14:01:59.734Z,25.00
2018-09-06T14:04:29.440Z,24.90
2018-09-06T14:06:59.194Z,25.10
2018-09-06T14:09:28.898Z,25.20
2018-09-06T14:11:58.663Z,25.40
2018-09-06T14:14:28.307Z,25.60
2018-09-06T14:16:59.289Z,26.20
2018-09-06T14:19:28.967Z,26.30
2018-09-06T14:21:58.971Z,26.10
2018-09-06T14:24:28.898Z,26.40
2018-09-06T14:26:59.106Z,26.40
2018-09-06T14:29:28.806Z,26.10
2018-09-06T14:31:58.563Z,26.30
2018-09-06T14:34:28.297Z,26.40
2018-09-06T14:36:58.151Z,26.50
2018-09-06T14:39:28.148Z,26.70
2018-09-06T14:41:57.796Z,26.50
2018-09-06T14:44:45.983Z,26.20
2018-09-06T14:47:15.782Z,26.20
2018-09-06T14:49:45.501Z,26.10
2018-09-06T14:52:15.446Z,25.90
2018-09-06T14:54:45.187Z,26.00
2018-09-06T14:57:14.943Z,25.80
2018-09-06T14:59:44.634Z,25.90
2018-09-06T15:02:14.254Z,25.90
2018-09-06T15:04:43.919Z,26.20
2018-09-06T15:07:13.715Z,26.60
2018-09-06T15:09:43.450Z,26.70
2018-09-06T15:12:13.487Z,26.70
2018-09-06T15:14:43.479Z,26.90
2018-09-06T15:17:13.534Z,27.20
2018-09-06T15:19:43.539Z,27.50
2018-09-06T15:22:13.929Z,27.30
2018-09-06T15:24:43.920Z,27.00
2018-09-06T15:27:28.252Z,26.40
2018-09-06T15:29:58.411Z,26.20
2018-09-06T15:32:28.435Z,25.70
2018-09-06T15:34:58.582Z,25.40
2018-09-06T15:37:28.892Z,25.20
2018-09-06T15:39:59.411Z,25.10
2018-09-06T15:42:34.279Z,24.90
2018-09-06T15:45:04.936Z,24.80
2018-09-06T15:47:35.052Z,24.70
2018-09-06T15:50:05.547Z,24.50
2018-09-06T15:52:35.641Z,24.50
2018-09-06T15:55:06.406Z,24.20
2018-09-06T15:57:37.006Z,24.10
2018-09-06T16:00:13.134Z,24.10
2018-09-06T16:02:43.584Z,24.10
2018-09-06T16:05:13.750Z,24.10
2018-09-06T16:07:44.067Z,24.00
2018-09-06T16:10:14.164Z,23.90
2018-09-06T16:12:44.513Z,23.90
2018-09-06T16:15:26.063Z,23.70
2018-09-06T16:17:56.727Z,23.70
2018-09-06T16:20:26.718Z,23.50
2018-09-06T16:22:56.802Z,23.40
2018-09-06T16:25:27.475Z,23.50
2018-09-06T16:27:57.672Z,23.50
2018-09-06T16:30:28.033Z,23.40
2018-09-06T16:33:11.563Z,23.40
2018-09-06T16:35:41.750Z,23.40
2018-09-06T16:38:11.845Z,23.30
2018-09-06T16:40:42.259Z,23.20
2018-09-06T16:43:12.547Z,23.10
2018-09-06T16:45:43.117Z,23.00
2018-09-06T16:48:13.698Z,23.00
2018-09-06T16:50:43.572Z,23.00
2018-09-06T16:53:13.569Z,22.90
2018-09-06T16:55:43.682Z,22.90
2018-09-06T16:58:13.776Z,22.80
2018-09-06T17:00:43.797Z,22.80
2018-09-06T17:03:13.996Z,22.70
2018-09-06T17:05:44.418Z,22.60
2018-09-06T17:08:15.395Z,22.70
2018-09-06T17:10:45.881Z,22.60
2018-09-06T17:16:01.846Z,22.60
2018-09-06T17:18:32.250Z,22.40
2018-09-06T17:21:01.939Z,22.20
2018-09-06T17:23:31.599Z,22.20
2018-09-06T17:26:01.507Z,22.20
2018-09-06T17:28:31.281Z,22.10
2018-09-06T17:31:01.012Z,22.00
2018-09-06T17:33:30.646Z,22.00
2018-09-06T17:38:38.459Z,22.00
2018-09-06T17:41:07.802Z,21.90
2018-09-06T17:43:37.188Z,21.90
2018-09-06T17:46:06.781Z,21.90
2018-09-06T17:48:36.139Z,21.90
2018-09-06T17:51:05.477Z,21.80
2018-09-06T17:53:34.896Z,21.70
2018-09-06T17:56:04.235Z,21.70
2018-09-06T17:58:33.562Z,21.70
2018-09-06T18:01:37.322Z,21.60
2018-09-06T18:04:07.280Z,21.70
2018-09-06T18:06:36.669Z,21.70
2018-09-06T18:09:13.034Z,21.60
2018-09-06T18:11:43.181Z,21.60
2018-09-06T18:14:12.813Z,21.60
2018-09-06T18:16:42.191Z,21.60
2018-09-06T18:19:11.537Z,21.50
2018-09-06T18:21:40.849Z,21.50
2018-09-06T18:27:23.930Z,21.50
2018-09-06T18:29:53.586Z,21.40
2018-09-06T18:32:23.252Z,21.40
2018-09-06T18:34:52.998Z,21.40
2018-09-06T18:37:22.575Z,21.40
2018-09-06T18:39:57.874Z,21.40
2018-09-06T18:42:27.357Z,21.40
2018-09-06T18:44:56.669Z,21.40
2018-09-06T18:47:26.165Z,21.40
2018-09-06T18:49:55.825Z,21.30
2018-09-06T18:52:25.455Z,21.30
2018-09-06T18:54:54.897Z,21.30
2018-09-06T18:57:24.305Z,21.30
2018-09-06T18:59:53.624Z,21.30
2018-09-06T19:02:23.305Z,21.30
2018-09-06T19:04:52.790Z,21.20
2018-09-06T19:07:24.381Z,21.20
2018-09-06T19:09:54.160Z,21.30
2018-09-06T19:12:23.955Z,21.30
2018-09-06T19:14:53.642Z,21.30
2018-09-06T19:17:23.594Z,21.20
2018-09-06T19:19:55.206Z,21.20
2018-09-06T19:22:24.946Z,21.10
2018-09-06T19:24:54.641Z,21.10
2018-09-06T19:27:25.110Z,21.10
2018-09-06T19:29:54.875Z,21.10
2018-09-06T19:32:24.762Z,21.10
2018-09-06T19:34:54.475Z,21.00
2018-09-06T19:37:24.234Z,21.00
2018-09-06T19:39:54.050Z,21.00
2018-09-06T19:42:28.137Z,20.90
2018-09-06T19:44:57.911Z,20.80
2018-09-06T19:47:28.330Z,20.80
2018-09-06T19:49:58.133Z,20.80
2018-09-06T19:52:27.879Z,20.70
2018-09-06T19:54:57.837Z,20.70
2018-09-06T19:57:27.675Z,20.70
2018-09-06T19:59:57.457Z,20.70
2018-09-06T20:02:27.273Z,20.60
2018-09-06T20:04:57.656Z,20.60
2018-09-06T20:07:27.463Z,20.60
2018-09-06T20:09:57.263Z,20.60
2018-09-06T20:12:26.926Z,20.50
2018-09-06T20:14:56.589Z,20.50
2018-09-06T20:17:29.918Z,20.40
2018-09-06T20:19:59.691Z,20.40
2018-09-06T20:22:29.441Z,20.40
2018-09-06T20:24:59.174Z,20.30
2018-09-06T20:27:28.867Z,20.30
2018-09-06T20:29:58.552Z,20.30
2018-09-06T20:32:28.201Z,20.20
2018-09-06T20:34:57.867Z,20.30
2018-09-06T20:37:27.555Z,20.30
2018-09-06T20:39:57.199Z,20.20
2018-09-06T20:42:26.941Z,20.20
2018-09-06T20:44:56.715Z,20.20
2018-09-06T20:47:26.362Z,20.10
2018-09-06T20:49:56.116Z,20.10
2018-09-06T20:52:25.783Z,20.10
2018-09-06T20:54:55.539Z,20.10
2018-09-06T20:57:25.266Z,20.10
2018-09-06T20:59:55.268Z,20.10
2018-09-06T21:02:25.847Z,20.10
2018-09-06T21:04:55.543Z,20.10
2018-09-06T21:07:25.270Z,20.00
2018-09-06T21:09:54.946Z,19.90
2018-09-06T21:12:24.738Z,19.90
2018-09-06T21:14:54.422Z,19.80
2018-09-06T21:17:23.914Z,19.80
2018-09-06T21:19:53.341Z,19.90
2018-09-06T21:22:22.690Z,19.80
2018-09-06T21:24:52.080Z,19.80
2018-09-06T21:27:21.422Z,19.70
2018-09-06T21:29:50.934Z,19.60
2018-09-06T21:32:20.293Z,19.70
2018-09-06T21:34:49.645Z,19.60
2018-09-06T21:37:18.973Z,19.60
2018-09-06T21:39:48.507Z,19.60
2018-09-06T21:42:17.900Z,19.60
2018-09-06T21:44:47.224Z,19.60
2018-09-06T21:47:16.557Z,19.50
2018-09-06T21:49:45.894Z,19.50
2018-09-06T21:52:15.571Z,19.60
2018-09-06T21:54:45.234Z,19.50
2018-09-06T21:57:15.063Z,19.40
2018-09-06T21:59:44.750Z,19.50
2018-09-06T22:02:19.535Z,19.50
2018-09-06T22:04:49.188Z,19.50
2018-09-06T22:07:18.878Z,19.40
2018-09-06T22:09:48.422Z,19.30
2018-09-06T22:12:19.092Z,19.30
2018-09-06T22:14:50.653Z,19.30
2018-09-06T22:17:20.433Z,19.20
2018-09-06T22:19:50.230Z,19.20
2018-09-06T22:22:19.995Z,19.20
2018-09-06T22:24:49.724Z,19.10
2018-09-06T22:27:19.403Z,19.10
2018-09-06T22:29:49.098Z,19.10
2018-09-06T22:32:19.102Z,19.00
2018-09-06T22:34:48.869Z,18.90
2018-09-06T22:37:18.612Z,18.90
2018-09-06T22:39:48.283Z,18.80
2018-09-06T22:42:17.991Z,18.80
2018-09-06T22:44:47.719Z,18.80
2018-09-06T22:47:17.502Z,18.70
2018-09-06T22:49:47.211Z,18.60
2018-09-06T22:52:17.225Z,18.60
2018-09-06T22:54:46.911Z,18.60
2018-09-06T22:57:16.678Z,18.60
2018-09-06T22:59:46.399Z,18.60
2018-09-06T23:02:16.066Z,18.60
2018-09-06T23:04:45.865Z,18.50
2018-09-06T23:07:15.571Z,18.50
2018-09-06T23:09:45.282Z,18.50
2018-09-06T23:12:14.975Z,18.60
2018-09-06T23:14:44.755Z,18.50
2018-09-06T23:17:20.150Z,18.50
2018-09-06T23:19:49.920Z,18.50
2018-09-06T23:22:19.695Z,18.40
2018-09-06T23:24:49.562Z,18.40
2018-09-06T23:27:19.306Z,18.40
2018-09-06T23:29:49.051Z,18.40
2018-09-06T23:32:18.776Z,18.30
2018-09-06T23:34:48.534Z,18.40
2018-09-06T23:37:18.211Z,18.30
2018-09-06T23:39:47.960Z,18.30
2018-09-06T23:42:24.830Z,18.30
2018-09-06T23:44:56.402Z,18.30
2018-09-06T23:47:26.132Z,18.20
2018-09-06T23:49:55.847Z,18.20
2018-09-06T23:52:25.609Z,18.10
2018-09-06T23:54:55.400Z,18.20
2018-09-06T23:57:25.042Z,18.10
2018-09-06T23:59:54.874Z,18.10
